sensor_id;sensor_type;location;lat;lon;timestamp;P1;durP1;ratioP1;P2;durP2;ratioP2
35646;SDS011;28680;45.642;13.756;2022-08-03T00:02:17;1.50;;;1.40;;
35646;SDS011;28680;45.642;13.756;2022-08-03T00:04:44;10.73;;;1.30;;
35646;SDS011;28680;45.642;13.756;2022-08-03T00:07:09;1.60;;;1.50;;
35646;SDS011;28680;45.642;13.756;2022-08-03T00:09:35;1.98;;;1.25;;
35646;SDS011;28680;45.642;13.756;2022-08-03T00:12:01;2.67;;;1.75;;
35646;SDS011;28680;45.642;13.756;2022-08-03T00:14:27;3.65;;;1.50;;
35646;SDS011;28680;45.642;13.756;2022-08-03T00:16:53;2.28;;;1.50;;
35646;SDS011;28680;45.642;13.756;2022-08-03T00:19:19;2.30;;;1.42;;
35646;SDS011;28680;45.642;13.756;2022-08-03T00:21:45;1.92;;;1.50;;
35646;SDS011;28680;45.642;13.756;2022-08-03T00:24:11;3.03;;;1.60;;
35646;SDS011;28680;45.642;13.756;2022-08-03T00:26:37;2.40;;;1.65;;
35646;SDS011;28680;45.642;13.756;2022-08-03T00:29:02;2.22;;;1.50;;
35646;SDS011;28680;45.642;13.756;2022-08-03T00:31:28;1.98;;;1.73;;
35646;SDS011;28680;45.642;13.756;2022-08-03T00:33:54;1.52;;;1.35;;
35646;SDS011;28680;45.642;13.756;2022-08-03T00:36:20;3.83;;;1.48;;
35646;SDS011;28680;45.642;13.756;2022-08-03T00:38:46;1.52;;;1.40;;
35646;SDS011;28680;45.642;13.756;2022-08-03T00:41:12;3.88;;;1.75;;
35646;SDS011;28680;45.642;13.756;2022-08-03T00:43:38;2.00;;;1.67;;
35646;SDS011;28680;45.642;13.756;2022-08-03T00:46:03;3.67;;;1.55;;
35646;SDS011;28680;45.642;13.756;2022-08-03T00:48:29;2.88;;;1.65;;
35646;SDS011;28680;45.642;13.756;2022-08-03T00:50:56;2.65;;;1.85;;
35646;SDS011;28680;45.642;13.756;2022-08-03T00:53:29;2.53;;;1.80;;
35646;SDS011;28680;45.642;13.756;2022-08-03T00:55:56;5.18;;;2.10;;
35646;SDS011;28680;45.642;13.756;2022-08-03T00:58:22;1.73;;;1.52;;
35646;SDS011;28680;45.642;13.756;2022-08-03T01:00:48;4.30;;;1.92;;
35646;SDS011;28680;45.642;13.756;2022-08-03T01:03:15;2.85;;;1.90;;
35646;SDS011;28680;45.642;13.756;2022-08-03T01:06:05;2.10;;;1.70;;
35646;SDS011;28680;45.642;13.756;2022-08-03T01:11:31;1.90;;;1.50;;
35646;SDS011;28680;45.642;13.756;2022-08-03T01:14:26;4.78;;;1.60;;
35646;SDS011;28680;45.642;13.756;2022-08-03T01:17:22;1.85;;;1.73;;
35646;SDS011;28680;45.642;13.756;2022-08-03T01:20:09;3.63;;;1.98;;
35646;SDS011;28680;45.642;13.756;2022-08-03T01:31:48;2.08;;;1.70;;
35646;SDS011;28680;45.642;13.756;2022-08-03T01:34:33;4.05;;;1.67;;
35646;SDS011;28680;45.642;13.756;2022-08-03T01:41:16;3.33;;;1.58;;
35646;SDS011;28680;45.642;13.756;2022-08-03T01:44:06;4.95;;;1.98;;
35646;SDS011;28680;45.642;13.756;2022-08-03T01:46:35;4.10;;;1.90;;
35646;SDS011;28680;45.642;13.756;2022-08-03T01:49:05;2.15;;;1.60;;
35646;SDS011;28680;45.642;13.756;2022-08-03T01:51:35;1.80;;;1.50;;
35646;SDS011;28680;45.642;13.756;2022-08-03T01:54:08;2.63;;;2.10;;
35646;SDS011;28680;45.642;13.756;2022-08-03T01:56:36;2.03;;;1.60;;
35646;SDS011;28680;45.642;13.756;2022-08-03T01:59:36;1.85;;;1.52;;
35646;SDS011;28680;45.642;13.756;2022-08-03T02:02:04;4.93;;;1.77;;
35646;SDS011;28680;45.642;13.756;2022-08-03T02:04:31;2.15;;;1.58;;
35646;SDS011;28680;45.642;13.756;2022-08-03T02:07:01;2.47;;;1.65;;
35646;SDS011;28680;45.642;13.756;2022-08-03T02:09:27;2.97;;;1.73;;
35646;SDS011;28680;45.642;13.756;2022-08-03T02:11:55;1.60;;;1.40;;
35646;SDS011;28680;45.642;13.756;2022-08-03T02:14:22;5.00;;;1.60;;
35646;SDS011;28680;45.642;13.756;2022-08-03T02:16:50;3.28;;;1.60;;
35646;SDS011;28680;45.642;13.756;2022-08-03T02:19:18;2.03;;;1.40;;
35646;SDS011;28680;45.642;13.756;2022-08-03T02:21:44;2.10;;;1.70;;
35646;SDS011;28680;45.642;13.756;2022-08-03T02:24:11;1.60;;;1.50;;
35646;SDS011;28680;45.642;13.756;2022-08-03T02:26:37;2.25;;;1.63;;
35646;SDS011;28680;45.642;13.756;2022-08-03T02:29:06;3.40;;;1.77;;
35646;SDS011;28680;45.642;13.756;2022-08-03T02:34:08;2.25;;;1.77;;
35646;SDS011;28680;45.642;13.756;2022-08-03T02:36:38;2.20;;;1.58;;
35646;SDS011;28680;45.642;13.756;2022-08-03T02:39:09;2.17;;;1.65;;
35646;SDS011;28680;45.642;13.756;2022-08-03T02:41:40;5.85;;;1.90;;
35646;SDS011;28680;45.642;13.756;2022-08-03T02:44:17;2.20;;;1.88;;
35646;SDS011;28680;45.642;13.756;2022-08-03T02:46:52;5.07;;;1.65;;
35646;SDS011;28680;45.642;13.756;2022-08-03T02:49:23;1.97;;;1.63;;
35646;SDS011;28680;45.642;13.756;2022-08-03T02:51:51;2.60;;;1.70;;
35646;SDS011;28680;45.642;13.756;2022-08-03T02:54:19;2.97;;;1.42;;
35646;SDS011;28680;45.642;13.756;2022-08-03T02:56:48;1.92;;;1.60;;
35646;SDS011;28680;45.642;13.756;2022-08-03T02:59:15;3.30;;;1.60;;
35646;SDS011;28680;45.642;13.756;2022-08-03T03:01:44;1.65;;;1.55;;
35646;SDS011;28680;45.642;13.756;2022-08-03T03:04:10;3.42;;;2.10;;
35646;SDS011;28680;45.642;13.756;2022-08-03T03:06:38;2.70;;;1.73;;
35646;SDS011;28680;45.642;13.756;2022-08-03T03:09:05;1.58;;;1.48;;
35646;SDS011;28680;45.642;13.756;2022-08-03T03:11:32;2.33;;;1.70;;
35646;SDS011;28680;45.642;13.756;2022-08-03T03:14:02;1.65;;;1.30;;
35646;SDS011;28680;45.642;13.756;2022-08-03T03:16:30;2.65;;;1.73;;
35646;SDS011;28680;45.642;13.756;2022-08-03T03:18:56;4.10;;;1.83;;
35646;SDS011;28680;45.642;13.756;2022-08-03T03:21:24;4.13;;;1.90;;
35646;SDS011;28680;45.642;13.756;2022-08-03T03:23:51;1.90;;;1.60;;
35646;SDS011;28680;45.642;13.756;2022-08-03T03:26:18;5.78;;;1.88;;
35646;SDS011;28680;45.642;13.756;2022-08-03T03:28:44;2.83;;;1.70;;
35646;SDS011;28680;45.642;13.756;2022-08-03T03:31:11;2.22;;;1.77;;
35646;SDS011;28680;45.642;13.756;2022-08-03T03:33:37;4.68;;;1.70;;
35646;SDS011;28680;45.642;13.756;2022-08-03T03:36:04;2.13;;;1.80;;
35646;SDS011;28680;45.642;13.756;2022-08-03T03:38:31;1.65;;;1.55;;
35646;SDS011;28680;45.642;13.756;2022-08-03T03:40:58;3.83;;;1.85;;
35646;SDS011;28680;45.642;13.756;2022-08-03T03:43:24;2.55;;;1.50;;
35646;SDS011;28680;45.642;13.756;2022-08-03T03:45:51;2.72;;;1.50;;
35646;SDS011;28680;45.642;13.756;2022-08-03T03:48:18;2.38;;;1.70;;
35646;SDS011;28680;45.642;13.756;2022-08-03T03:51:04;1.42;;;1.23;;
35646;SDS011;28680;45.642;13.756;2022-08-03T03:53:31;1.95;;;1.70;;
35646;SDS011;28680;45.642;13.756;2022-08-03T03:55:57;3.15;;;1.70;;
35646;SDS011;28680;45.642;13.756;2022-08-03T03:58:24;1.50;;;1.40;;
35646;SDS011;28680;45.642;13.756;2022-08-03T04:00:50;2.20;;;1.80;;
35646;SDS011;28680;45.642;13.756;2022-08-03T04:03:17;2.45;;;1.52;;
35646;SDS011;28680;45.642;13.756;2022-08-03T04:05:44;1.58;;;1.48;;
35646;SDS011;28680;45.642;13.756;2022-08-03T04:08:28;2.83;;;1.80;;
35646;SDS011;28680;45.642;13.756;2022-08-03T04:11:37;2.00;;;1.80;;
35646;SDS011;28680;45.642;13.756;2022-08-03T04:14:12;1.92;;;1.70;;
35646;SDS011;28680;45.642;13.756;2022-08-03T04:20:47;2.25;;;1.70;;
35646;SDS011;28680;45.642;13.756;2022-08-03T04:23:16;2.60;;;1.80;;
35646;SDS011;28680;45.642;13.756;2022-08-03T04:26:13;1.83;;;1.63;;
35646;SDS011;28680;45.642;13.756;2022-08-03T04:28:55;2.65;;;1.50;;
35646;SDS011;28680;45.642;13.756;2022-08-03T04:31:22;5.53;;;1.98;;
35646;SDS011;28680;45.642;13.756;2022-08-03T04:33:50;2.10;;;1.60;;
35646;SDS011;28680;45.642;13.756;2022-08-03T04:36:23;5.18;;;1.85;;
35646;SDS011;28680;45.642;13.756;2022-08-03T04:39:02;2.25;;;1.70;;
35646;SDS011;28680;45.642;13.756;2022-08-03T04:41:38;2.65;;;1.50;;
35646;SDS011;28680;45.642;13.756;2022-08-03T04:44:05;2.58;;;1.73;;
35646;SDS011;28680;45.642;13.756;2022-08-03T04:46:36;2.30;;;1.60;;
35646;SDS011;28680;45.642;13.756;2022-08-03T04:49:04;1.77;;;1.52;;
35646;SDS011;28680;45.642;13.756;2022-08-03T04:51:31;3.13;;;1.63;;
35646;SDS011;28680;45.642;13.756;2022-08-03T04:53:59;2.35;;;1.65;;
35646;SDS011;28680;45.642;13.756;2022-08-03T04:56:25;3.58;;;1.58;;
35646;SDS011;28680;45.642;13.756;2022-08-03T04:58:51;2.05;;;1.52;;
35646;SDS011;28680;45.642;13.756;2022-08-03T05:01:18;4.93;;;2.05;;
35646;SDS011;28680;45.642;13.756;2022-08-03T05:03:47;5.50;;;1.48;;
35646;SDS011;28680;45.642;13.756;2022-08-03T05:06:14;1.80;;;1.50;;
35646;SDS011;28680;45.642;13.756;2022-08-03T05:08:40;2.00;;;1.58;;
35646;SDS011;28680;45.642;13.756;2022-08-03T05:11:06;1.85;;;1.55;;
35646;SDS011;28680;45.642;13.756;2022-08-03T05:13:32;3.35;;;1.50;;
35646;SDS011;28680;45.642;13.756;2022-08-03T05:15:58;2.30;;;1.60;;
35646;SDS011;28680;45.642;13.756;2022-08-03T05:18:23;3.38;;;1.90;;
35646;SDS011;28680;45.642;13.756;2022-08-03T05:20:49;1.83;;;1.45;;
35646;SDS011;28680;45.642;13.756;2022-08-03T05:23:15;2.47;;;1.98;;
35646;SDS011;28680;45.642;13.756;2022-08-03T05:25:42;2.38;;;1.40;;
35646;SDS011;28680;45.642;13.756;2022-08-03T05:28:07;3.25;;;1.38;;
35646;SDS011;28680;45.642;13.756;2022-08-03T05:30:33;3.17;;;1.40;;
35646;SDS011;28680;45.642;13.756;2022-08-03T05:33:01;2.38;;;1.60;;
35646;SDS011;28680;45.642;13.756;2022-08-03T05:35:27;2.40;;;1.45;;
35646;SDS011;28680;45.642;13.756;2022-08-03T05:37:54;2.38;;;1.70;;
35646;SDS011;28680;45.642;13.756;2022-08-03T05:40:20;2.00;;;1.45;;
35646;SDS011;28680;45.642;13.756;2022-08-03T05:42:46;2.28;;;1.60;;
35646;SDS011;28680;45.642;13.756;2022-08-03T05:45:11;12.98;;;2.28;;
35646;SDS011;28680;45.642;13.756;2022-08-03T05:48:28;2.70;;;1.70;;
35646;SDS011;28680;45.642;13.756;2022-08-03T05:50:54;3.00;;;1.73;;
35646;SDS011;28680;45.642;13.756;2022-08-03T05:53:20;3.22;;;2.33;;
35646;SDS011;28680;45.642;13.756;2022-08-03T05:55:46;1.58;;;1.48;;
35646;SDS011;28680;45.642;13.756;2022-08-03T05:58:12;1.83;;;1.55;;
35646;SDS011;28680;45.642;13.756;2022-08-03T06:00:38;2.83;;;1.50;;
35646;SDS011;28680;45.642;13.756;2022-08-03T06:03:04;3.80;;;1.63;;
35646;SDS011;28680;45.642;13.756;2022-08-03T06:05:30;2.33;;;1.63;;
35646;SDS011;28680;45.642;13.756;2022-08-03T06:07:56;3.28;;;1.50;;
35646;SDS011;28680;45.642;13.756;2022-08-03T06:10:22;1.90;;;1.48;;
35646;SDS011;28680;45.642;13.756;2022-08-03T06:12:48;3.90;;;1.50;;
35646;SDS011;28680;45.642;13.756;2022-08-03T06:15:14;3.05;;;1.48;;
35646;SDS011;28680;45.642;13.756;2022-08-03T06:17:48;2.15;;;1.30;;
35646;SDS011;28680;45.642;13.756;2022-08-03T06:20:16;2.07;;;1.47;;
35646;SDS011;28680;45.642;13.756;2022-08-03T06:22:46;1.50;;;1.40;;
35646;SDS011;28680;45.642;13.756;2022-08-03T06:25:13;3.10;;;1.50;;
35646;SDS011;28680;45.642;13.756;2022-08-03T06:27:40;2.70;;;1.77;;
35646;SDS011;28680;45.642;13.756;2022-08-03T06:30:07;2.28;;;1.33;;
35646;SDS011;28680;45.642;13.756;2022-08-03T06:32:36;9.07;;;2.03;;
35646;SDS011;28680;45.642;13.756;2022-08-03T06:35:04;2.30;;;1.23;;
35646;SDS011;28680;45.642;13.756;2022-08-03T06:37:40;5.55;;;1.60;;
35646;SDS011;28680;45.642;13.756;2022-08-03T06:40:45;3.92;;;1.33;;
35646;SDS011;28680;45.642;13.756;2022-08-03T06:43:11;2.63;;;1.40;;
35646;SDS011;28680;45.642;13.756;2022-08-03T06:45:39;2.88;;;1.35;;
35646;SDS011;28680;45.642;13.756;2022-08-03T06:48:07;7.47;;;2.10;;
35646;SDS011;28680;45.642;13.756;2022-08-03T06:50:35;4.85;;;1.45;;
35646;SDS011;28680;45.642;13.756;2022-08-03T06:53:03;2.95;;;1.50;;
35646;SDS011;28680;45.642;13.756;2022-08-03T06:55:29;1.80;;;1.45;;
35646;SDS011;28680;45.642;13.756;2022-08-03T06:57:56;1.90;;;1.27;;
35646;SDS011;28680;45.642;13.756;2022-08-03T07:00:22;1.50;;;1.40;;
35646;SDS011;28680;45.642;13.756;2022-08-03T07:03:16;5.03;;;1.30;;
35646;SDS011;28680;45.642;13.756;2022-08-03T07:05:42;2.33;;;1.58;;
35646;SDS011;28680;45.642;13.756;2022-08-03T07:08:13;1.73;;;1.40;;
35646;SDS011;28680;45.642;13.756;2022-08-03T07:10:43;2.78;;;1.63;;
35646;SDS011;28680;45.642;13.756;2022-08-03T07:13:10;2.97;;;1.20;;
35646;SDS011;28680;45.642;13.756;2022-08-03T07:16:05;3.95;;;1.48;;
35646;SDS011;28680;45.642;13.756;2022-08-03T07:18:31;1.63;;;1.30;;
35646;SDS011;28680;45.642;13.756;2022-08-03T07:20:57;2.08;;;1.40;;
35646;SDS011;28680;45.642;13.756;2022-08-03T07:23:23;3.65;;;1.52;;
35646;SDS011;28680;45.642;13.756;2022-08-03T07:25:49;1.85;;;1.10;;
35646;SDS011;28680;45.642;13.756;2022-08-03T07:28:15;1.30;;;1.20;;
35646;SDS011;28680;45.642;13.756;2022-08-03T07:30:44;2.13;;;1.15;;
35646;SDS011;28680;45.642;13.756;2022-08-03T07:33:09;3.60;;;1.40;;
35646;SDS011;28680;45.642;13.756;2022-08-03T07:35:36;3.10;;;1.17;;
35646;SDS011;28680;45.642;13.756;2022-08-03T07:38:29;1.50;;;1.23;;
35646;SDS011;28680;45.642;13.756;2022-08-03T07:43:59;2.42;;;1.30;;
35646;SDS011;28680;45.642;13.756;2022-08-03T07:46:38;1.90;;;1.00;;
35646;SDS011;28680;45.642;13.756;2022-08-03T07:49:04;1.52;;;1.05;;
35646;SDS011;28680;45.642;13.756;2022-08-03T07:51:33;1.52;;;1.10;;
35646;SDS011;28680;45.642;13.756;2022-08-03T07:53:59;2.08;;;1.15;;
35646;SDS011;28680;45.642;13.756;2022-08-03T07:56:25;3.33;;;1.23;;
35646;SDS011;28680;45.642;13.756;2022-08-03T07:58:57;1.92;;;1.10;;
35646;SDS011;28680;45.642;13.756;2022-08-03T08:01:27;6.25;;;1.40;;
35646;SDS011;28680;45.642;13.756;2022-08-03T08:03:55;4.50;;;1.20;;
35646;SDS011;28680;45.642;13.756;2022-08-03T08:06:27;2.45;;;1.10;;
35646;SDS011;28680;45.642;13.756;2022-08-03T08:08:53;2.75;;;1.55;;
35646;SDS011;28680;45.642;13.756;2022-08-03T08:11:23;2.17;;;1.40;;
35646;SDS011;28680;45.642;13.756;2022-08-03T08:13:49;1.95;;;1.45;;
35646;SDS011;28680;45.642;13.756;2022-08-03T08:16:14;2.92;;;1.15;;
35646;SDS011;28680;45.642;13.756;2022-08-03T08:18:40;1.73;;;1.33;;
35646;SDS011;28680;45.642;13.756;2022-08-03T08:21:06;4.57;;;1.42;;
35646;SDS011;28680;45.642;13.756;2022-08-03T08:23:32;3.25;;;1.35;;
35646;SDS011;28680;45.642;13.756;2022-08-03T08:25:58;4.97;;;1.30;;
35646;SDS011;28680;45.642;13.756;2022-08-03T08:28:24;7.00;;;1.23;;
35646;SDS011;28680;45.642;13.756;2022-08-03T08:30:50;2.20;;;1.38;;
35646;SDS011;28680;45.642;13.756;2022-08-03T08:48:48;1.95;;;1.33;;
35646;SDS011;28680;45.642;13.756;2022-08-03T08:51:16;1.35;;;1.25;;
35646;SDS011;28680;45.642;13.756;2022-08-03T08:53:46;4.40;;;1.50;;
35646;SDS011;28680;45.642;13.756;2022-08-03T08:56:24;5.35;;;1.38;;
35646;SDS011;28680;45.642;13.756;2022-08-03T08:58:51;1.50;;;1.40;;
35646;SDS011;28680;45.642;13.756;2022-08-03T09:01:22;2.33;;;1.27;;
35646;SDS011;28680;45.642;13.756;2022-08-03T09:03:48;1.98;;;1.50;;
35646;SDS011;28680;45.642;13.756;2022-08-03T09:06:14;3.35;;;1.30;;
35646;SDS011;28680;45.642;13.756;2022-08-03T09:08:40;2.13;;;1.30;;
35646;SDS011;28680;45.642;13.756;2022-08-03T09:11:06;1.60;;;1.13;;
35646;SDS011;28680;45.642;13.756;2022-08-03T09:13:33;2.28;;;1.20;;
35646;SDS011;28680;45.642;13.756;2022-08-03T09:16:10;1.67;;;1.15;;
35646;SDS011;28680;45.642;13.756;2022-08-03T09:18:43;1.90;;;1.25;;
35646;SDS011;28680;45.642;13.756;2022-08-03T09:21:24;2.60;;;1.40;;
35646;SDS011;28680;45.642;13.756;2022-08-03T09:23:56;1.25;;;1.15;;
35646;SDS011;28680;45.642;13.756;2022-08-03T09:26:27;2.00;;;1.33;;
35646;SDS011;28680;45.642;13.756;2022-08-03T09:29:02;3.58;;;1.20;;
35646;SDS011;28680;45.642;13.756;2022-08-03T09:31:38;1.20;;;1.10;;
35646;SDS011;28680;45.642;13.756;2022-08-03T09:34:11;1.52;;;1.00;;
35646;SDS011;28680;45.642;13.756;2022-08-03T09:36:43;2.70;;;1.30;;
35646;SDS011;28680;45.642;13.756;2022-08-03T09:39:14;1.55;;;1.23;;
35646;SDS011;28680;45.642;13.756;2022-08-03T09:41:44;1.33;;;1.08;;
35646;SDS011;28680;45.642;13.756;2022-08-03T09:44:13;1.95;;;1.15;;
35646;SDS011;28680;45.642;13.756;2022-08-03T09:46:46;1.45;;;1.02;;
35646;SDS011;28680;45.642;13.756;2022-08-03T09:49:17;1.80;;;1.08;;
35646;SDS011;28680;45.642;13.756;2022-08-03T09:51:43;1.58;;;1.20;;
35646;SDS011;28680;45.642;13.756;2022-08-03T09:54:09;3.67;;;1.17;;
35646;SDS011;28680;45.642;13.756;2022-08-03T09:56:36;2.92;;;1.17;;
35646;SDS011;28680;45.642;13.756;2022-08-03T09:59:11;1.35;;;1.13;;
35646;SDS011;28680;45.642;13.756;2022-08-03T10:01:46;1.10;;;1.00;;
35646;SDS011;28680;45.642;13.756;2022-08-03T10:04:13;3.03;;;1.30;;
35646;SDS011;28680;45.642;13.756;2022-08-03T10:06:44;1.55;;;1.05;;
35646;SDS011;28680;45.642;13.756;2022-08-03T10:09:25;2.42;;;1.42;;
35646;SDS011;28680;45.642;13.756;2022-08-03T10:11:51;4.20;;;1.48;;
35646;SDS011;28680;45.642;13.756;2022-08-03T10:14:18;1.08;;;0.93;;
35646;SDS011;28680;45.642;13.756;2022-08-03T10:16:45;2.45;;;1.30;;
35646;SDS011;28680;45.642;13.756;2022-08-03T10:19:12;3.95;;;1.20;;
35646;SDS011;28680;45.642;13.756;2022-08-03T10:21:40;1.58;;;1.27;;
35646;SDS011;28680;45.642;13.756;2022-08-03T10:24:27;2.28;;;1.20;;
35646;SDS011;28680;45.642;13.756;2022-08-03T10:27:02;2.45;;;1.10;;
35646;SDS011;28680;45.642;13.756;2022-08-03T10:29:35;5.88;;;1.30;;
35646;SDS011;28680;45.642;13.756;2022-08-03T10:32:03;2.65;;;1.48;;
35646;SDS011;28680;45.642;13.756;2022-08-03T10:34:39;2.03;;;1.40;;
35646;SDS011;28680;45.642;13.756;2022-08-03T10:37:08;1.65;;;1.38;;
35646;SDS011;28680;45.642;13.756;2022-08-03T10:39:36;1.92;;;1.38;;
35646;SDS011;28680;45.642;13.756;2022-08-03T10:42:17;3.28;;;1.40;;
35646;SDS011;28680;45.642;13.756;2022-08-03T10:44:50;1.88;;;1.30;;
35646;SDS011;28680;45.642;13.756;2022-08-03T10:47:26;1.33;;;1.10;;
35646;SDS011;28680;45.642;13.756;2022-08-03T10:49:53;2.03;;;1.10;;
35646;SDS011;28680;45.642;13.756;2022-08-03T10:52:19;2.75;;;1.48;;
35646;SDS011;28680;45.642;13.756;2022-08-03T10:54:45;2.33;;;1.30;;
35646;SDS011;28680;45.642;13.756;2022-08-03T11:02:03;1.33;;;1.00;;
35646;SDS011;28680;45.642;13.756;2022-08-03T11:04:32;1.38;;;1.08;;
35646;SDS011;28680;45.642;13.756;2022-08-03T11:07:20;1.90;;;0.98;;
35646;SDS011;28680;45.642;13.756;2022-08-03T11:09:52;2.67;;;1.08;;
35646;SDS011;28680;45.642;13.756;2022-08-03T11:12:20;1.88;;;1.10;;
35646;SDS011;28680;45.642;13.756;2022-08-03T11:15:02;1.98;;;1.20;;
35646;SDS011;28680;45.642;13.756;2022-08-03T11:17:31;1.30;;;1.10;;
35646;SDS011;28680;45.642;13.756;2022-08-03T11:19:58;1.90;;;1.38;;
35646;SDS011;28680;45.642;13.756;2022-08-03T11:22:25;5.93;;;1.30;;
35646;SDS011;28680;45.642;13.756;2022-08-03T11:25:18;1.40;;;1.30;;
35646;SDS011;28680;45.642;13.756;2022-08-03T12:11:39;2.17;;;1.10;;
35646;SDS011;28680;45.642;13.756;2022-08-03T12:14:04;1.33;;;1.10;;
35646;SDS011;28680;45.642;13.756;2022-08-03T12:16:30;2.10;;;1.00;;
35646;SDS011;28680;45.642;13.756;2022-08-03T12:18:58;1.50;;;1.20;;
35646;SDS011;28680;45.642;13.756;2022-08-03T12:21:29;1.33;;;1.10;;
35646;SDS011;28680;45.642;13.756;2022-08-03T12:24:04;2.42;;;1.17;;
35646;SDS011;28680;45.642;13.756;2022-08-03T12:26:43;1.52;;;1.10;;
35646;SDS011;28680;45.642;13.756;2022-08-03T12:29:15;4.20;;;1.20;;
35646;SDS011;28680;45.642;13.756;2022-08-03T12:31:50;2.15;;;1.40;;
35646;SDS011;28680;45.642;13.756;2022-08-03T12:34:16;1.63;;;0.93;;
35646;SDS011;28680;45.642;13.756;2022-08-03T12:36:51;2.30;;;1.15;;
35646;SDS011;28680;45.642;13.756;2022-08-03T12:39:22;1.00;;;1.00;;
35646;SDS011;28680;45.642;13.756;2022-08-03T12:41:51;3.42;;;1.30;;
35646;SDS011;28680;45.642;13.756;2022-08-03T12:44:27;3.83;;;1.30;;
35646;SDS011;28680;45.642;13.756;2022-08-03T12:46:59;2.40;;;1.35;;
35646;SDS011;28680;45.642;13.756;2022-08-03T12:49:27;2.97;;;1.20;;
35646;SDS011;28680;45.642;13.756;2022-08-03T12:54:25;3.30;;;1.10;;
35646;SDS011;28680;45.642;13.756;2022-08-03T12:59:30;2.08;;;1.35;;
35646;SDS011;28680;45.642;13.756;2022-08-03T13:02:14;2.13;;;1.20;;
35646;SDS011;28680;45.642;13.756;2022-08-03T13:04:42;1.65;;;1.08;;
35646;SDS011;28680;45.642;13.756;2022-08-03T13:07:10;1.98;;;1.30;;
35646;SDS011;28680;45.642;13.756;2022-08-03T13:09:41;3.08;;;1.25;;
35646;SDS011;28680;45.642;13.756;2022-08-03T13:12:16;1.73;;;1.13;;
35646;SDS011;28680;45.642;13.756;2022-08-03T13:14:46;1.55;;;1.10;;
35646;SDS011;28680;45.642;13.756;2022-08-03T13:17:15;2.58;;;1.33;;
35646;SDS011;28680;45.642;13.756;2022-08-03T13:19:43;2.40;;;1.27;;
35646;SDS011;28680;45.642;13.756;2022-08-03T13:24:43;2.65;;;1.20;;
35646;SDS011;28680;45.642;13.756;2022-08-03T13:27:11;4.10;;;1.38;;
35646;SDS011;28680;45.642;13.756;2022-08-03T13:29:38;3.03;;;1.38;;
35646;SDS011;28680;45.642;13.756;2022-08-03T13:32:04;4.68;;;1.23;;
35646;SDS011;28680;45.642;13.756;2022-08-03T13:34:32;4.45;;;1.10;;
35646;SDS011;28680;45.642;13.756;2022-08-03T13:37:01;5.72;;;1.17;;
35646;SDS011;28680;45.642;13.756;2022-08-03T13:39:27;3.40;;;1.10;;
35646;SDS011;28680;45.642;13.756;2022-08-03T13:41:53;2.47;;;1.02;;
35646;SDS011;28680;45.642;13.756;2022-08-03T13:44:19;6.45;;;1.50;;
35646;SDS011;28680;45.642;13.756;2022-08-03T13:46:46;2.33;;;1.17;;
35646;SDS011;28680;45.642;13.756;2022-08-03T13:49:12;1.25;;;1.10;;
35646;SDS011;28680;45.642;13.756;2022-08-03T13:51:39;3.13;;;1.08;;
35646;SDS011;28680;45.642;13.756;2022-08-03T13:54:05;1.80;;;1.10;;
35646;SDS011;28680;45.642;13.756;2022-08-03T13:56:31;3.28;;;1.00;;
35646;SDS011;28680;45.642;13.756;2022-08-03T13:58:57;2.17;;;1.15;;
35646;SDS011;28680;45.642;13.756;2022-08-03T14:01:23;1.35;;;1.20;;
35646;SDS011;28680;45.642;13.756;2022-08-03T14:03:50;2.13;;;1.10;;
35646;SDS011;28680;45.642;13.756;2022-08-03T14:06:18;1.20;;;0.90;;
35646;SDS011;28680;45.642;13.756;2022-08-03T14:08:45;1.52;;;0.88;;
35646;SDS011;28680;45.642;13.756;2022-08-03T14:11:12;1.10;;;1.00;;
35646;SDS011;28680;45.642;13.756;2022-08-03T14:13:39;3.40;;;0.93;;
35646;SDS011;28680;45.642;13.756;2022-08-03T14:16:05;2.05;;;0.80;;
35646;SDS011;28680;45.642;13.756;2022-08-03T14:18:31;3.05;;;1.02;;
35646;SDS011;28680;45.642;13.756;2022-08-03T14:20:57;4.38;;;1.00;;
35646;SDS011;28680;45.642;13.756;2022-08-03T14:23:25;2.08;;;0.90;;
35646;SDS011;28680;45.642;13.756;2022-08-03T14:25:51;0.77;;;0.77;;
35646;SDS011;28680;45.642;13.756;2022-08-03T14:28:17;2.55;;;1.15;;
35646;SDS011;28680;45.642;13.756;2022-08-03T14:30:46;2.70;;;1.10;;
35646;SDS011;28680;45.642;13.756;2022-08-03T14:33:12;2.05;;;0.95;;
35646;SDS011;28680;45.642;13.756;2022-08-03T14:35:38;1.25;;;0.98;;
35646;SDS011;28680;45.642;13.756;2022-08-03T14:38:04;1.30;;;0.70;;
35646;SDS011;28680;45.642;13.756;2022-08-03T14:40:48;1.98;;;0.93;;
35646;SDS011;28680;45.642;13.756;2022-08-03T14:43:16;3.83;;;1.38;;
35646;SDS011;28680;45.642;13.756;2022-08-03T14:45:44;3.10;;;1.05;;
35646;SDS011;28680;45.642;13.756;2022-08-03T14:48:10;2.60;;;1.08;;
35646;SDS011;28680;45.642;13.756;2022-08-03T14:50:36;4.55;;;1.20;;
35646;SDS011;28680;45.642;13.756;2022-08-03T14:53:02;2.35;;;1.10;;
35646;SDS011;28680;45.642;13.756;2022-08-03T14:55:28;4.30;;;1.30;;
35646;SDS011;28680;45.642;13.756;2022-08-03T14:57:54;1.63;;;1.20;;
35646;SDS011;28680;45.642;13.756;2022-08-03T15:00:20;3.22;;;0.90;;
35646;SDS011;28680;45.642;13.756;2022-08-03T15:02:46;2.53;;;1.27;;
35646;SDS011;28680;45.642;13.756;2022-08-03T15:05:12;1.20;;;0.90;;
35646;SDS011;28680;45.642;13.756;2022-08-03T15:07:42;2.20;;;1.10;;
35646;SDS011;28680;45.642;13.756;2022-08-03T15:10:08;3.28;;;1.23;;
35646;SDS011;28680;45.642;13.756;2022-08-03T15:12:33;3.88;;;1.00;;
35646;SDS011;28680;45.642;13.756;2022-08-03T15:15:17;3.65;;;1.00;;
35646;SDS011;28680;45.642;13.756;2022-08-03T15:17:43;2.05;;;1.10;;
35646;SDS011;28680;45.642;13.756;2022-08-03T15:20:09;6.30;;;1.40;;
35646;SDS011;28680;45.642;13.756;2022-08-03T15:22:38;2.60;;;1.25;;
35646;SDS011;28680;45.642;13.756;2022-08-03T15:25:04;3.33;;;1.30;;
35646;SDS011;28680;45.642;13.756;2022-08-03T15:27:31;2.88;;;1.40;;
35646;SDS011;28680;45.642;13.756;2022-08-03T15:29:57;7.65;;;1.67;;
35646;SDS011;28680;45.642;13.756;2022-08-03T15:32:23;2.38;;;1.45;;
35646;SDS011;28680;45.642;13.756;2022-08-03T15:34:49;3.80;;;1.38;;
35646;SDS011;28680;45.642;13.756;2022-08-03T15:37:16;1.85;;;1.30;;
35646;SDS011;28680;45.642;13.756;2022-08-03T15:39:43;1.83;;;1.05;;
35646;SDS011;28680;45.642;13.756;2022-08-03T15:42:10;2.35;;;1.30;;
35646;SDS011;28680;45.642;13.756;2022-08-03T15:44:36;1.27;;;1.10;;
35646;SDS011;28680;45.642;13.756;2022-08-03T15:47:02;2.38;;;1.20;;
35646;SDS011;28680;45.642;13.756;2022-08-03T15:49:28;2.42;;;1.10;;
35646;SDS011;28680;45.642;13.756;2022-08-03T15:51:54;2.63;;;1.05;;
35646;SDS011;28680;45.642;13.756;2022-08-03T15:54:32;1.67;;;0.98;;
35646;SDS011;28680;45.642;13.756;2022-08-03T15:57:09;3.13;;;1.20;;
35646;SDS011;28680;45.642;13.756;2022-08-03T15:59:35;3.15;;;1.20;;
35646;SDS011;28680;45.642;13.756;2022-08-03T16:02:01;3.15;;;1.45;;
35646;SDS011;28680;45.642;13.756;2022-08-03T16:04:27;1.48;;;1.17;;
35646;SDS011;28680;45.642;13.756;2022-08-03T16:06:53;1.45;;;1.13;;
35646;SDS011;28680;45.642;13.756;2022-08-03T16:09:19;3.65;;;1.42;;
35646;SDS011;28680;45.642;13.756;2022-08-03T16:11:45;2.78;;;1.08;;
35646;SDS011;28680;45.642;13.756;2022-08-03T16:14:11;2.78;;;1.20;;
35646;SDS011;28680;45.642;13.756;2022-08-03T16:16:39;4.97;;;1.42;;
35646;SDS011;28680;45.642;13.756;2022-08-03T16:19:05;3.58;;;1.15;;
35646;SDS011;28680;45.642;13.756;2022-08-03T16:21:31;1.50;;;1.02;;
35646;SDS011;28680;45.642;13.756;2022-08-03T16:23:58;3.72;;;1.42;;
35646;SDS011;28680;45.642;13.756;2022-08-03T16:26:25;1.77;;;1.17;;